Time;durP1;ratioP1;P1;durP2;ratioP2;P2;SDS_P1;SDS_P2;PMS_P1;PMS_P2;Temp;Humidity;BMP_temperature;BMP_pressure;BME280_temperature;BME280_humidity;BME280_pressure;Samples;Min_cycle;Max_cycle;Signal;HPM_P1;HPM_P2
2021/03/28 00:02:11;;;;;;;;;;;;;;;14.10;48.03;102585.31;5053752;28;19959;-86
2021/03/28 00:04:46;;;;;;;;;;;;;;;13.81;48.73;102580.84;5055058;28;19924;-86
2021/03/28 00:07:12;;;;;;;;;;;;;;;12.87;50.60;102594.63;5055522;28;19912;-86
2021/03/28 00:09:41;;;;;;;;;;;;;;;13.69;49.63;102600.31;5055031;28;20193;-86
2021/03/28 00:12:12;;;;;;;;;;;;;;;13.00;50.77;102590.63;5054992;28;19967;-87
2021/03/28 00:14:53;;;;;;;;;;;;;;;12.05;53.38;102597.75;5055094;28;19921;-86
2021/03/28 00:17:18;;;;;;;;;;;;;;;13.10;50.76;102589.41;5055262;28;19931;-85
2021/03/28 00:19:49;;;;;;;;;;;;;;;13.39;50.18;102597.63;5056311;28;19952;-85
2021/03/28 00:22:18;;;;;;;;;;;;;;;13.59;49.75;102583.41;5054743;28;19924;-86
2021/03/28 00:24:50;;;;;;;;;;;;;;;13.08;50.63;102596.69;5054821;28;19917;-85
2021/03/28 00:27:17;;;;;;;;;;;;;;;13.27;50.42;102588.88;5056521;28;19913;-86
2021/03/28 00:29:51;;;;;;;;;;;;;;;13.64;49.64;102595.00;5055213;28;19921;-84
2021/03/28 00:32:19;;;;;;;;;;;;;;;13.76;49.57;102588.28;5054349;28;20477;-85
2021/03/28 00:34:46;;;;;;;;;;;;;;;13.97;49.15;102589.41;5045153;28;20363;-85
2021/03/28 00:37:11;;;;;;;;;;;;;;;13.59;50.23;102580.69;5055789;28;19913;-85
2021/03/28 00:39:40;;;;;;;;;;;;;;;13.32;51.02;102583.31;5054187;28;20397;-85
2021/03/28 00:42:09;;;;;;;;;;;;;;;14.05;48.31;102586.41;5054892;28;20428;-85
2021/03/28 00:44:44;;;;;;;;;;;;;;;13.46;50.08;102581.06;5052823;28;20325;-86
2021/03/28 00:47:11;;;;;;;;;;;;;;;12.56;52.09;102588.25;5054410;28;19931;-85
2021/03/28 00:49:39;;;;;;;;;;;;;;;13.16;50.94;102587.44;5053546;28;20008;-85
2021/03/28 00:52:25;;;;;;;;;;;;;;;13.69;49.22;102584.84;5053246;28;20392;-87
2021/03/28 00:54:52;;;;;;;;;;;;;;;12.73;52.13;102584.16;5053629;28;19924;-86
2021/03/28 00:57:23;;;;;;;;;;;;;;;12.66;52.30;102586.16;5055443;28;19921;-86
2021/03/28 00:59:48;;;;;;;;;;;;;;;12.83;51.73;102585.69;5054498;28;19924;-85
2021/03/28 01:02:19;;;;;;;;;;;;;;;13.33;50.75;102579.66;5054613;28;19917;-84
2021/03/28 01:04:48;;;;;;;;;;;;;;;12.91;51.74;102582.75;5056161;28;19901;-88
2021/03/28 01:07:21;;;;;;;;;;;;;;;13.43;49.90;102575.72;5054247;28;20026;-86
2021/03/28 01:10:05;;;;;;;;;;;;;;;13.48;50.19;102567.41;5054401;28;19917;-86
2021/03/28 01:12:49;;;;;;;;;;;;;;;13.19;50.65;102565.59;5057009;28;19943;-88
2021/03/28 01:15:23;;;;;;;;;;;;;;;13.28;50.25;102562.59;5053402;28;19960;-87
2021/03/28 01:18:09;;;;;;;;;;;;;;;14.10;47.87;102562.63;5054960;28;19928;-87
2021/03/28 01:20:44;;;;;;;;;;;;;;;13.94;48.33;102556.84;5054537;28;19963;-86
2021/03/28 01:23:14;;;;;;;;;;;;;;;13.97;48.31;102548.59;5055236;28;19931;-87
2021/03/28 01:25:44;;;;;;;;;;;;;;;13.77;48.85;102560.16;5053827;28;19917;-86
2021/03/28 01:28:22;;;;;;;;;;;;;;;13.25;50.53;102551.81;5054033;28;20026;-85
2021/03/28 01:30:49;;;;;;;;;;;;;;;13.34;50.06;102542.50;5054973;28;19920;-85
2021/03/28 01:33:17;;;;;;;;;;;;;;;13.39;49.67;102545.97;5055220;28;19917;-87
2021/03/28 01:35:52;;;;;;;;;;;;;;;13.63;49.40;102544.25;5054121;28;19917;-86
2021/03/28 01:38:38;;;;;;;;;;;;;;;13.69;48.52;102541.34;5053733;28;19928;-86
2021/03/28 01:41:10;;;;;;;;;;;;;;;13.59;49.04;102551.66;5057545;28;20377;-85
2021/03/28 01:43:47;;;;;;;;;;;;;;;13.57;49.59;102539.94;5057502;28;19960;-85
2021/03/28 01:46:12;;;;;;;;;;;;;;;13.73;49.20;102540.31;5058298;28;20024;-86
2021/03/28 01:48:47;;;;;;;;;;;;;;;13.42;49.80;102540.44;5058015;28;19952;-86
2021/03/28 01:51:32;;;;;;;;;;;;;;;13.64;48.55;102546.06;5057754;28;19920;-86
2021/03/28 01:54:09;;;;;;;;;;;;;;;13.43;49.31;102539.50;5057351;28;19956;-86
2021/03/28 01:56:44;;;;;;;;;;;;;;;13.60;48.95;102545.28;5058311;28;19923;-86
2021/03/28 01:59:09;;;;;;;;;;;;;;;13.48;49.42;102542.94;5058086;28;19913;-85
2021/03/28 02:01:44;;;;;;;;;;;;;;;14.21;47.75;102537.78;5059399;28;19970;-86
2021/03/28 02:04:28;;;;;;;;;;;;;;;14.07;47.55;102538.25;5060326;28;19917;-85
2021/03/28 02:07:11;;;;;;;;;;;;;;;14.35;46.67;102532.72;5059459;28;20012;-84
2021/03/28 02:09:42;;;;;;;;;;;;;;;13.97;47.70;102527.69;5059314;28;19956;-85
2021/03/28 02:12:20;;;;;;;;;;;;;;;13.97;47.33;102527.69;5058872;28;19970;-87
2021/03/28 02:14:48;;;;;;;;;;;;;;;13.08;49.87;102539.63;5058153;28;19974;-86
2021/03/28 02:17:20;;;;;;;;;;;;;;;13.87;48.01;102525.34;5059245;28;19929;-87
2021/03/28 02:20:21;;;;;;;;;;;;;;;12.83;50.08;102525.94;5057930;28;19917;-87
2021/03/28 02:23:25;;;;;;;;;;;;;;;13.60;48.86;102526.25;4981185;28;20403;-85
2021/03/28 02:25:59;;;;;;;;;;;;;;;12.92;49.92;102520.22;4981474;28;19918;-87
2021/03/28 02:28:31;;;;;;;;;;;;;;;13.11;49.83;102525.06;4997872;28;19922;-86
2021/03/28 02:31:04;;;;;;;;;;;;;;;12.34;51.59;102514.66;5039766;28;19917;-86
2021/03/28 02:33:43;;;;;;;;;;;;;;;12.91;50.48;102513.00;5057954;28;19967;-87
2021/03/28 02:36:30;;;;;;;;;;;;;;;12.61;51.71;102509.38;5059436;28;20325;-86
2021/03/28 02:39:07;;;;;;;;;;;;;;;13.40;48.24;102520.56;5057714;28;20359;-87
2021/03/28 02:41:46;;;;;;;;;;;;;;;12.82;50.34;102512.38;5060078;28;19928;-86
2021/03/28 02:44:18;;;;;;;;;;;;;;;13.30;49.08;102514.53;5061215;28;20019;-86
2021/03/28 02:46:43;;;;;;;;;;;;;;;13.06;49.41;102511.63;5058737;28;19947;-86
2021/03/28 02:49:32;;;;;;;;;;;;;;;13.28;48.59;102511.81;5059158;28;20269;-85
2021/03/28 02:51:57;;;;;;;;;;;;;;;13.56;48.39;102516.41;5059544;28;19917;-86
2021/03/28 02:54:28;;;;;;;;;;;;;;;11.97;52.30;102518.41;5060101;28;20397;-85
2021/03/28 02:56:56;;;;;;;;;;;;;;;13.11;49.48;102516.91;5060835;28;20329;-85
2021/03/28 02:59:42;;;;;;;;;;;;;;;13.43;48.71;102505.03;5068452;28;19924;-86
2021/03/28 03:02:27;;;;;;;;;;;;;;;13.80;46.89;102503.81;5069721;28;19924;-86
2021/03/28 03:04:59;;;;;;;;;;;;;;;13.83;47.46;102503.69;5017670;28;19928;-85
2021/03/28 03:07:30;;;;;;;;;;;;;;;13.39;48.24;102507.91;5067579;28;19917;-86
2021/03/28 03:10:14;;;;;;;;;;;;;;;12.71;50.15;102504.56;5070725;28;19920;-82
2021/03/28 03:12:49;;;;;;;;;;;;;;;13.63;47.70;102492.59;5070202;28;19923;-85
2021/03/28 03:15:18;;;;;;;;;;;;;;;13.64;48.19;102486.22;5067076;28;19921;-84
2021/03/28 03:17:52;;;;;;;;;;;;;;;13.53;48.62;102496.59;5062181;28;19925;-86
2021/03/28 03:20:36;;;;;;;;;;;;;;;14.06;47.00;102480.22;5062219;28;19913;-84
2021/03/28 03:23:04;;;;;;;;;;;;;;;12.57;50.32;102497.69;5062027;28;20011;-87
2021/03/28 03:25:56;;;;;;;;;;;;;;;13.03;49.70;102492.72;5059190;28;19966;-85
2021/03/28 03:28:40;;;;;;;;;;;;;;;13.00;50.07;102487.38;5058280;28;19920;-85
2021/03/28 03:31:24;;;;;;;;;;;;;;;12.49;51.35;102496.19;5057294;28;19921;-87
2021/03/28 03:34:08;;;;;;;;;;;;;;;13.55;48.22;102481.09;5056744;28;19917;-86
2021/03/28 03:36:48;;;;;;;;;;;;;;;13.88;47.29;102483.59;5056357;28;19928;-86
2021/03/28 03:39:17;;;;;;;;;;;;;;;12.88;49.88;102493.19;5056343;28;19920;-86
2021/03/28 03:42:01;;;;;;;;;;;;;;;13.12;48.99;102481.56;5055663;28;19917;-86
2021/03/28 03:44:55;;;;;;;;;;;;;;;13.22;49.55;102490.28;5055748;28;19921;-85
2021/03/28 03:47:26;;;;;;;;;;;;;;;13.83;47.00;102486.50;5055252;28;20011;-86
2021/03/28 03:50:01;;;;;;;;;;;;;;;13.79;48.05;102488.41;5055495;28;19917;-86
2021/03/28 03:52:45;;;;;;;;;;;;;;;13.79;47.19;102499.28;5055542;28;19916;-86
2021/03/28 03:55:21;;;;;;;;;;;;;;;13.85;47.49;102498.19;5055347;28;19920;-87
2021/03/28 03:57:48;;;;;;;;;;;;;;;14.03;46.66;102504.81;5055164;28;19916;-86
2021/03/28 04:00:20;;;;;;;;;;;;;;;13.92;46.76;102501.56;5055141;28;20367;-85
2021/03/28 04:02:49;;;;;;;;;;;;;;;13.37;48.41;102502.50;5054455;28;19952;-86
2021/03/28 04:05:23;;;;;;;;;;;;;;;13.26;48.05;102494.69;5054545;28;20393;-86
2021/03/28 04:07:54;;;;;;;;;;;;;;;13.51;47.79;102495.72;5054181;28;20292;-85
2021/03/28 04:10:46;;;;;;;;;;;;;;;13.15;49.14;102499.59;5054568;28;20007;-86
2021/03/28 04:13:11;;;;;;;;;;;;;;;12.50;50.03;102503.34;5031918;28;20379;-88
2021/03/28 04:15:36;;;;;;;;;;;;;;;13.22;48.15;102494.84;5056062;28;19967;-87
2021/03/28 04:18:12;;;;;;;;;;;;;;;13.21;49.06;102495.75;5054958;28;20070;-87
2021/03/28 04:20:57;;;;;;;;;;;;;;;13.03;48.70;102491.81;5056165;28;19917;-86
2021/03/28 04:23:31;;;;;;;;;;;;;;;12.97;48.92;102483.84;5054909;28;19971;-86
2021/03/28 04:26:15;;;;;;;;;;;;;;;13.17;48.39;102485.97;5054845;28;19917;-87
2021/03/28 04:28:43;;;;;;;;;;;;;;;13.33;48.31;102487.25;5054702;28;19979;-88
2021/03/28 04:31:21;;;;;;;;;;;;;;;12.76;49.50;102491.75;5055540;28;19923;-87
2021/03/28 04:33:48;;;;;;;;;;;;;;;13.70;47.37;102483.28;5053868;28;19921;-86
2021/03/28 04:36:21;;;;;;;;;;;;;;;13.15;48.42;102499.59;5054556;28;19921;-87
2021/03/28 04:38:54;;;;;;;;;;;;;;;12.85;49.43;102496.00;5056361;28;19917;-86
2021/03/28 04:41:19;;;;;;;;;;;;;;;13.42;48.10;102508.72;5056164;28;19924;-87
2021/03/28 04:44:03;;;;;;;;;;;;;;;13.65;47.70;102499.78;5056704;28;19925;-86
2021/03/28 04:46:47;;;;;;;;;;;;;;;13.29;48.73;102507.28;5056278;28;19966;-86
2021/03/28 04:49:21;;;;;;;;;;;;;;;13.14;49.23;102500.53;5057838;28;19920;-87
2021/03/28 04:52:22;;;;;;;;;;;;;;;13.83;47.54;102498.25;5056625;28;20392;-86
2021/03/28 04:55:19;;;;;;;;;;;;;;;13.41;48.94;102498.78;5056122;28;19917;-86
2021/03/28 04:57:57;;;;;;;;;;;;;;;14.22;46.30;102486.00;5012440;28;19923;-87
2021/03/28 05:00:25;;;;;;;;;;;;;;;13.70;46.55;102475.13;5055021;28;19917;-86
2021/03/28 05:02:50;;;;;;;;;;;;;;;14.22;46.60;102464.22;5055565;28;20282;-85
2021/03/28 05:05:22;;;;;;;;;;;;;;;14.07;46.35;102465.69;5055633;28;19924;-86
2021/03/28 05:08:02;;;;;;;;;;;;;;;14.81;45.41;102460.19;5055423;28;20378;-86
2021/03/28 05:10:27;;;;;;;;;;;;;;;13.75;47.34;102461.38;5055170;28;19923;-86
2021/03/28 05:12:57;;;;;;;;;;;;;;;14.54;45.25;102468.44;5055880;28;19958;-86
2021/03/28 05:15:22;;;;;;;;;;;;;;;14.65;45.33;102467.19;5059155;28;20290;-87
2021/03/28 05:17:50;;;;;;;;;;;;;;;14.70;45.04;102466.06;5059257;28;19921;-85
2021/03/28 05:20:18;;;;;;;;;;;;;;;14.62;45.29;102464.59;5060740;28;19962;-85
2021/03/28 05:23:03;;;;;;;;;;;;;;;15.09;44.36;102456.34;5060257;28;19970;-85
2021/03/28 05:25:47;;;;;;;;;;;;;;;14.43;46.08;102462.53;5058724;28;19980;-84
2021/03/28 05:28:13;;;;;;;;;;;;;;;15.57;43.22;102465.28;5060597;28;19920;-85
2021/03/28 05:30:51;;;;;;;;;;;;;;;14.63;45.61;102458.16;5059394;28;19917;-86
2021/03/28 05:33:35;;;;;;;;;;;;;;;14.29;46.36;102462.16;5059264;28;19917;-85
2021/03/28 05:36:13;;;;;;;;;;;;;;;15.15;44.32;102452.47;5059251;28;19917;-84
2021/03/28 05:38:55;;;;;;;;;;;;;;;15.20;44.27;102445.91;5059202;28;19960;-86
2021/03/28 05:41:26;;;;;;;;;;;;;;;15.10;44.12;102455.41;5059321;28;20193;-86
2021/03/28 05:43:51;;;;;;;;;;;;;;;15.24;43.79;102460.28;5058956;28;19970;-85
2021/03/28 05:46:35;;;;;;;;;;;;;;;15.06;44.45;102468.25;5059375;28;19922;-87
2021/03/28 05:49:00;;;;;;;;;;;;;;;15.41;43.81;102457.75;5057063;28;19916;-86
2021/03/28 05:52:04;;;;;;;;;;;;;;;14.80;45.18;102452.94;5056407;28;19917;-87
2021/03/28 05:54:58;;;;;;;;;;;;;;;15.16;44.30;102454.28;4979908;28;20334;-85
2021/03/28 05:57:32;;;;;;;;;;;;;;;14.31;46.01;102446.63;4996524;28;19976;-86
2021/03/28 06:00:00;;;;;;;;;;;;;;;14.76;45.39;102445.84;5033622;28;20267;-85
2021/03/28 06:02:32;;;;;;;;;;;;;;;14.67;45.43;102446.22;5056905;28;19923;-86
2021/03/28 06:05:16;;;;;;;;;;;;;;;14.65;45.79;102445.41;5055992;28;20482;-86
2021/03/28 06:08:00;;;;;;;;;;;;;;;14.41;46.27;102453.53;5055769;28;20023;-87
2021/03/28 06:10:34;;;;;;;;;;;;;;;14.83;45.33;102457.41;5057471;28;19924;-85
2021/03/28 06:13:18;;;;;;;;;;;;;;;14.35;46.73;102459.19;5057643;28;19916;-85
2021/03/28 06:15:46;;;;;;;;;;;;;;;14.40;46.64;102462.63;5057561;28;19928;-86
2021/03/28 06:18:32;;;;;;;;;;;;;;;13.60;47.90;102454.63;5056820;28;19917;-86
2021/03/28 06:20:57;;;;;;;;;;;;;;;14.12;47.38;102466.38;5016122;28;19924;-84
2021/03/28 06:23:22;;;;;;;;;;;;;;;14.20;47.15;102462.50;5053570;28;19920;-85
2021/03/28 06:26:17;;;;;;;;;;;;;;;14.50;47.00;102465.91;5056762;28;19916;-85
2021/03/28 06:29:08;;;;;;;;;;;;;;;14.09;47.67;102466.50;5041104;28;19912;-87
2021/03/28 06:31:53;;;;;;;;;;;;;;;14.82;45.82;102467.38;5025391;28;20273;-86
2021/03/28 06:34:24;;;;;;;;;;;;;;;13.84;48.02;102471.94;5054927;28;19928;-86
2021/03/28 06:36:52;;;;;;;;;;;;;;;13.38;48.63;102477.13;5054898;28;20527;-87
2021/03/28 06:39:46;;;;;;;;;;;;;;;14.03;47.72;102476.72;5047820;28;19927;-86
2021/03/28 06:42:31;;;;;;;;;;;;;;;14.35;47.30;102480.97;5026336;28;19916;-87
2021/03/28 06:45:06;;;;;;;;;;;;;;;14.70;46.31;102465.16;5037968;28;20053;-87
2021/03/28 06:47:43;;;;;;;;;;;;;;;15.74;44.04;102470.88;5037851;28;19928;-85
2021/03/28 06:50:24;;;;;;;;;;;;;;;14.16;46.84;102478.94;5038471;28;19931;-85
2021/03/28 06:53:04;;;;;;;;;;;;;;;15.42;44.51;102472.25;5038261;28;19917;-87
2021/03/28 06:55:30;;;;;;;;;;;;;;;14.45;46.84;102485.13;5037042;28;19939;-84
2021/03/28 06:58:14;;;;;;;;;;;;;;;15.18;45.71;102479.63;5041989;28;19917;-85
2021/03/28 07:00:39;;;;;;;;;;;;;;;15.12;45.12;102488.94;5055704;28;19921;-84
2021/03/28 07:03:23;;;;;;;;;;;;;;;15.52;44.69;102495.47;5055685;28;19917;-85
2021/03/28 07:06:07;;;;;;;;;;;;;;;15.49;44.71;102487.41;5037601;28;19917;-86
2021/03/28 07:08:42;;;;;;;;;;;;;;;14.91;45.57;102493.41;5037615;28;19916;-89
2021/03/28 07:11:22;;;;;;;;;;;;;;;15.15;44.58;102487.91;5037648;28;19912;-86
2021/03/28 07:14:06;;;;;;;;;;;;;;;15.84;43.27;102485.03;5037137;28;19928;-85
2021/03/28 07:17:01;;;;;;;;;;;;;;;15.75;43.00;102485.41;5037518;28;20366;-87
2021/03/28 07:19:39;;;;;;;;;;;;;;;14.82;45.54;102481.00;4984196;28;19922;-86
2021/03/28 07:22:17;;;;;;;;;;;;;;;14.57;45.95;102481.06;5037435;28;19932;-87
2021/03/28 07:25:01;;;;;;;;;;;;;;;15.58;43.43;102483.41;5037194;28;19923;-86
2021/03/28 07:27:42;;;;;;;;;;;;;;;14.84;44.67;102484.59;5037012;28;20324;-86
2021/03/28 07:30:34;;;;;;;;;;;;;;;14.78;45.33;102471.22;5037302;28;19924;-86
2021/03/28 07:33:08;;;;;;;;;;;;;;;15.37;43.42;102477.03;5037011;28;19917;-86
2021/03/28 07:35:53;;;;;;;;;;;;;;;15.53;43.65;102475.41;5037598;28;20484;-87
2021/03/28 07:38:21;;;;;;;;;;;;;;;14.31;45.68;102477.50;5036542;28;20441;-85
2021/03/28 07:40:46;;;;;;;;;;;;;;;15.88;42.84;102472.16;5037232;28;20075;-86
2021/03/28 07:43:50;;;;;;;;;;;;;;;13.98;46.26;102469.63;5038942;28;19956;-86
2021/03/28 07:46:22;;;;;;;;;;;;;;;15.18;43.72;102464.13;4978444;28;19993;-86
2021/03/28 07:48:50;;;;;;;;;;;;;;;14.88;45.00;102467.16;4985510;28;19918;-86
2021/03/28 07:51:34;;;;;;;;;;;;;;;15.80;42.25;102472.47;5025543;28;19940;-85
2021/03/28 07:53:59;;;;;;;;;;;;;;;15.48;42.89;102482.03;5054388;28;19917;-87
2021/03/28 07:56:30;;;;;;;;;;;;;;;16.16;42.20;102471.81;5055601;28;19940;-87
2021/03/28 07:59:14;;;;;;;;;;;;;;;16.05;41.85;102472.28;5036844;28;19924;-88
2021/03/28 08:01:49;;;;;;;;;;;;;;;15.41;43.22;102475.94;5037189;28;19917;-87
2021/03/28 08:04:35;;;;;;;;;;;;;;;15.84;41.63;102481.44;5037192;28;19969;-87
2021/03/28 08:07:12;;;;;;;;;;;;;;;15.83;42.30;102476.94;5051597;28;19916;-87
2021/03/28 08:09:56;;;;;;;;;;;;;;;15.53;42.67;102478.13;5037284;28;19917;-88
2021/03/28 08:12:29;;;;;;;;;;;;;;;15.84;42.10;102474.13;5038741;28;19924;-86
2021/03/28 08:15:00;;;;;;;;;;;;;;;16.20;40.59;102468.00;5038836;28;19921;-88
2021/03/28 08:17:38;;;;;;;;;;;;;;;14.56;43.63;102476.56;5038962;28;19963;-85
2021/03/28 08:20:09;;;;;;;;;;;;;;;15.07;42.93;102461.84;5057431;28;19925;-87
2021/03/28 08:22:50;;;;;;;;;;;;;;;15.04;43.44;102466.56;5039406;28;19917;-86
2021/03/28 08:25:21;;;;;;;;;;;;;;;15.39;41.90;102461.47;5038665;28;19923;-85
2021/03/28 08:27:58;;;;;;;;;;;;;;;16.12;40.93;102457.41;5056099;28;20464;-87
2021/03/28 08:30:41;;;;;;;;;;;;;;;15.94;40.96;102461.84;5039398;28;19921;-88
2021/03/28 08:33:26;;;;;;;;;;;;;;;15.97;40.61;102466.28;5040269;28;19917;-89
2021/03/28 08:36:10;;;;;;;;;;;;;;;16.21;40.39;102468.88;5039253;28;20420;-89
2021/03/28 08:38:35;;;;;;;;;;;;;;;14.85;42.62;102469.13;5056057;28;20259;-85
2021/03/28 08:41:13;;;;;;;;;;;;;;;15.74;41.42;102462.69;5038264;28;19924;-87
2021/03/28 08:44:04;;;;;;;;;;;;;;;15.56;41.77;102463.47;5039753;28;19997;-89
2021/03/28 08:46:43;;;;;;;;;;;;;;;15.09;43.27;102469.97;5053989;28;19925;-88
2021/03/28 08:49:20;;;;;;;;;;;;;;;16.17;41.04;102465.41;5041905;28;19923;-91
2021/03/28 08:52:01;;;;;;;;;;;;;;;15.69;42.36;102469.31;5040195;28;20051;-87
2021/03/28 08:54:35;;;;;;;;;;;;;;;15.99;41.35;102474.41;5039007;28;19978;-88
2021/03/28 08:57:00;;;;;;;;;;;;;;;15.37;42.87;102479.75;5038797;28;19924;-89
2021/03/28 08:59:35;;;;;;;;;;;;;;;16.07;41.95;102470.38;5040158;28;20378;-89
2021/03/28 09:02:01;;;;;;;;;;;;;;;16.40;40.95;102471.66;5036786;28;19920;-87
2021/03/28 09:04:47;;;;;;;;;;;;;;;15.86;41.57;102474.06;5038251;28;19917;-89
2021/03/28 09:07:18;;;;;;;;;;;;;;;15.74;41.83;102478.19;5038884;28;19920;-89
2021/03/28 09:09:47;;;;;;;;;;;;;;;16.11;40.92;102482.94;5037911;28;19921;-88
2021/03/28 09:12:20;;;;;;;;;;;;;;;16.47;40.42;102478.56;5055378;28;20329;-85
2021/03/28 09:15:03;;;;;;;;;;;;;;;16.81;39.53;102483.34;5037967;28;20016;-89
2021/03/28 09:17:38;;;;;;;;;;;;;;;15.72;41.91;102485.56;5039541;28;19921;-87
2021/03/28 09:20:06;;;;;;;;;;;;;;;16.95;39.29;102484.56;5054919;28;19975;-89
2021/03/28 09:22:50;;;;;;;;;;;;;;;16.21;41.26;102482.53;5058093;28;19917;-88
2021/03/28 09:25:25;;;;;;;;;;;;;;;15.73;41.95;102499.13;5059699;28;20342;-90
2021/03/28 09:27:53;;;;;;;;;;;;;;;17.42;38.78;102496.84;5063645;28;19948;-87
2021/03/28 09:30:18;;;;;;;;;;;;;;;17.01;39.78;102495.19;5067323;28;19929;-85
2021/03/28 09:33:02;;;;;;;;;;;;;;;16.71;40.53;102492.06;5072186;28;19972;-84
2021/03/28 09:35:33;;;;;;;;;;;;;;;16.83;39.98;102508.78;5063426;28;19916;-84
2021/03/28 09:38:19;;;;;;;;;;;;;;;15.60;42.41;102519.69;5049631;28;19924;-84
2021/03/28 09:40:48;;;;;;;;;;;;;;;16.36;41.16;102508.25;5015225;28;20046;-85
2021/03/28 09:43:13;;;;;;;;;;;;;;;16.69;40.48;102504.91;5042276;28;20011;-86
2021/03/28 09:45:48;;;;;;;;;;;;;;;16.25;41.69;102497.81;5040873;28;19963;-86
2021/03/28 09:48:32;;;;;;;;;;;;;;;17.71;38.64;102490.78;5040508;28;19935;-88
2021/03/28 09:51:02;;;;;;;;;;;;;;;16.53;40.50;102526.59;5036458;28;19977;-88
2021/03/28 09:53:47;;;;;;;;;;;;;;;16.31;41.24;102492.06;5038855;28;19924;-87
2021/03/28 09:56:43;;;;;;;;;;;;;;;17.66;39.21;102498.38;5052932;28;20401;-86
2021/03/28 09:59:15;;;;;;;;;;;;;;;15.52;42.74;102505.47;5036146;28;20338;-89
2021/03/28 10:01:59;;;;;;;;;;;;;;;15.89;41.73;102509.41;5027144;28;19944;-87
2021/03/28 10:04:33;;;;;;;;;;;;;;;16.75;40.71;102504.63;5055551;28;19928;-89
2021/03/28 10:07:03;;;;;;;;;;;;;;;15.62;43.65;102511.44;5031668;28;19939;-90
2021/03/28 10:09:37;;;;;;;;;;;;;;;16.42;42.32;102499.78;5046676;28;19917;-86
2021/03/28 10:12:09;;;;;;;;;;;;;;;16.33;43.36;102519.31;5030352;28;19917;-87
2021/03/28 10:14:48;;;;;;;;;;;;;;;17.06;42.73;102508.66;5026276;28;20421;-88
2021/03/28 10:17:14;;;;;;;;;;;;;;;16.27;43.89;102513.19;5064169;28;20008;-86
2021/03/28 10:19:41;;;;;;;;;;;;;;;15.28;44.57;102508.28;5029349;28;19952;-89
2021/03/28 10:22:15;;;;;;;;;;;;;;;16.08;44.18;102509.50;5027946;28;19961;-86
2021/03/28 10:24:59;;;;;;;;;;;;;;;15.52;43.59;102525.47;5021348;28;19989;-87
2021/03/28 10:27:24;;;;;;;;;;;;;;;15.73;42.80;102525.50;5027781;28;19917;-84
2021/03/28 10:30:11;;;;;;;;;;;;;;;15.77;42.15;102528.06;5028257;28;19947;-88
2021/03/28 10:32:55;;;;;;;;;;;;;;;15.22;42.44;102533.06;5032298;28;19972;-87
2021/03/28 10:35:20;;;;;;;;;;;;;;;15.30;42.71;102539.09;5023227;28;19957;-88
2021/03/28 10:37:57;;;;;;;;;;;;;;;14.93;42.59;102528.75;5046779;28;20007;-90
2021/03/28 10:40:23;;;;;;;;;;;;;;;15.55;41.90;102533.53;5024607;28;19929;-89
2021/03/28 10:42:54;;;;;;;;;;;;;;;15.10;42.69;102548.09;5025043;28;19917;-89
2021/03/28 10:45:32;;;;;;;;;;;;;;;15.28;42.47;102526.47;5028694;28;19928;-87
2021/03/28 10:48:16;;;;;;;;;;;;;;;16.28;40.91;102534.06;5014891;28;19922;-87
2021/03/28 10:51:01;;;;;;;;;;;;;;;16.45;40.48;102530.56;5024781;28;19917;-93
2021/03/28 10:53:49;;;;;;;;;;;;;;;16.07;40.94;102527.72;5071420;28;19955;-89
2021/03/28 10:56:15;;;;;;;;;;;;;;;16.21;40.65;102531.66;5039899;28;19917;-88
2021/03/28 10:58:49;;;;;;;;;;;;;;;16.91;39.24;102505.72;5059466;28;20035;-91
2021/03/28 11:01:14;;;;;;;;;;;;;;;15.24;43.04;102510.22;5058991;28;19923;-90
2021/03/28 11:04:00;;;;;;;;;;;;;;;16.67;40.63;102521.38;5050681;28;19956;-90
2021/03/28 11:06:46;;;;;;;;;;;;;;;15.61;41.65;102518.75;5032258;28;20043;-87
2021/03/28 11:09:30;;;;;;;;;;;;;;;14.94;44.32;102527.81;5037082;28;20277;-90
2021/03/28 11:12:01;;;;;;;;;;;;;;;15.55;42.57;102558.09;5030176;28;19963;-89
2021/03/28 11:14:46;;;;;;;;;;;;;;;17.55;39.05;102528.13;5038204;28;19975;-88
2021/03/28 11:17:18;;;;;;;;;;;;;;;16.24;41.25;102526.06;5063965;28;20275;-90
2021/03/28 11:19:55;;;;;;;;;;;;;;;16.00;41.99;102533.50;5037895;28;20370;-90
2021/03/28 11:22:39;;;;;;;;;;;;;;;16.21;42.23;102540.75;5036092;28;19995;-88
2021/03/28 11:25:24;;;;;;;;;;;;;;;16.43;41.36;102520.69;5053821;28;19928;-88
2021/03/28 11:28:04;;;;;;;;;;;;;;;17.22;39.96;102537.03;5043982;28;19964;-93
2021/03/28 11:30:33;;;;;;;;;;;;;;;16.74;41.00;102547.47;5032357;28;19917;-91
2021/03/28 11:33:02;;;;;;;;;;;;;;;16.78;40.79;102548.22;5037372;28;19967;-92
2021/03/28 11:35:32;;;;;;;;;;;;;;;15.96;42.35;102540.94;5084068;22;19948;-91
2021/03/28 11:38:06;;;;;;;;;;;;;;;16.13;42.33;102542.94;5037207;28;19925;-91
2021/03/28 11:43:05;;;;;;;;;;;;;;;15.79;42.99;102536.19;5044831;22;19940;-89
2021/03/28 11:45:34;;;;;;;;;;;;;;;16.48;41.61;102529.53;5035613;28;19917;-88
2021/03/28 11:48:00;;;;;;;;;;;;;;;16.74;40.94;102508.31;5035900;28;19921;-90
2021/03/28 11:50:32;;;;;;;;;;;;;;;16.07;42.09;102511.31;5033645;28;19932;-86
2021/03/28 11:53:09;;;;;;;;;;;;;;;16.57;40.67;102518.19;5037162;28;19921;-84
2021/03/28 11:55:37;;;;;;;;;;;;;;;16.19;41.06;102534.47;5035104;28;19924;-87
2021/03/28 11:58:29;;;;;;;;;;;;;;;15.97;41.49;102544.56;5033322;28;19921;-87
2021/03/28 12:00:55;;;;;;;;;;;;;;;16.73;39.87;102534.78;5018447;28;20393;-91
2021/03/28 12:03:21;;;;;;;;;;;;;;;16.58;40.53;102528.16;5034480;28;19960;-88
2021/03/28 12:06:01;;;;;;;;;;;;;;;16.69;40.22;102533.13;5033851;28;19917;-88
2021/03/28 12:08:34;;;;;;;;;;;;;;;16.86;39.56;102537.78;5034387;28;19917;-87
2021/03/28 12:11:18;;;;;;;;;;;;;;;15.91;42.10;102559.34;5034372;28;19928;-90
2021/03/28 12:13:50;;;;;;;;;;;;;;;17.19;39.10;102564.53;5035554;28;19921;-93
2021/03/28 12:16:52;;;;;;;;;;;;;;;16.14;41.01;102555.66;5038245;28;19921;-93
2021/03/28 12:19:39;;;;;;;;;;;;;;;16.07;41.37;102573.25;5047597;22;19972;-91
2021/03/28 12:28:29;;;;;;;;;;;;;;;15.36;42.17;102571.56;5237754;22;20758;-91
2021/03/28 12:30:54;;;;;;;;;;;;;;;16.06;41.41;102572.38;5039113;28;20019;-92
2021/03/28 12:33:54;;;;;;;;;;;;;;;16.39;40.50;102565.47;5038806;28;19982;-92
2021/03/28 12:36:19;;;;;;;;;;;;;;;15.98;40.92;102563.59;5057616;28;19923;-91
2021/03/28 12:38:50;;;;;;;;;;;;;;;16.28;40.61;102572.28;5038999;28;19917;-92
2021/03/28 12:41:22;;;;;;;;;;;;;;;16.08;41.35;102569.56;5038390;28;19956;-90
2021/03/28 12:43:51;;;;;;;;;;;;;;;15.61;41.65;102595.16;5055784;28;20019;-87
2021/03/28 12:46:37;;;;;;;;;;;;;;;15.48;42.43;102581.09;5054149;22;19924;-91
2021/03/28 12:49:10;;;;;;;;;;;;;;;16.48;40.67;102578.72;5078302;28;19971;-91
2021/03/28 12:51:50;;;;;;;;;;;;;;;16.40;40.59;102575.44;5079935;28;19916;-89
2021/03/28 12:54:24;;;;;;;;;;;;;;;16.92;39.66;102573.06;5078242;28;19942;-89
2021/03/28 12:56:54;;;;;;;;;;;;;;;16.98;39.60;102559.16;5078131;28;20369;-93
2021/03/28 12:59:38;;;;;;;;;;;;;;;15.98;41.76;102565.44;5079705;28;19916;-90
2021/03/28 13:02:14;;;;;;;;;;;;;;;16.06;41.46;102564.19;5077647;28;19991;-91
2021/03/28 13:04:48;;;;;;;;;;;;;;;17.00;40.19;102559.94;5080388;28;20321;-89
2021/03/28 13:07:49;;;;;;;;;;;;;;;16.79;40.16;102552.75;5078354;28;19962;-91
2021/03/28 13:10:21;;;;;;;;;;;;;;;16.33;41.99;102568.47;4980355;28;20025;-90
2021/03/28 13:12:53;;;;;;;;;;;;;;;16.47;41.38;102552.34;4980163;28;19922;-92
2021/03/28 13:15:27;;;;;;;;;;;;;;;16.35;41.53;102563.81;4980226;28;19976;-96
2021/03/28 13:18:11;;;;;;;;;;;;;;;17.09;40.49;102557.72;4979872;28;19934;-92
2021/03/28 13:20:39;;;;;;;;;;;;;;;15.84;42.73;102561.47;4980495;28;19965;-90
2021/03/28 13:23:05;;;;;;;;;;;;;;;16.57;41.57;102541.91;4979041;28;19925;-90
2021/03/28 13:25:34;;;;;;;;;;;;;;;16.61;41.58;102549.88;4978790;28;19925;-92
2021/03/28 13:28:19;;;;;;;;;;;;;;;16.13;42.80;102534.75;4980058;28;19918;-90
2021/03/28 13:30:46;;;;;;;;;;;;;;;16.14;42.70;102536.53;5004640;28;19916;-90